Time;durP1;ratioP1;P1;durP2;ratioP2;P2;SDS_P1;SDS_P2;PMS_P1;PMS_P2;Temp;Humidity;BMP_temperature;BMP_pressure;BME280_temperature;BME280_humidity;BME280_pressure;Samples;Min_cycle;Max_cycle;Signal;HPM_P1;HPM_P2
2023/01/22 00:00:12;;;;;;;9.50;7.77;;;3.60;99.90;;;;;;4991976;28;20239;-54
2023/01/22 00:02:38;;;;;;;8.43;6.80;;;3.70;99.90;;;;;;4991903;28;20654;-53
2023/01/22 00:05:05;;;;;;;9.07;7.50;;;3.60;99.90;;;;;;4991544;28;20499;-56
2023/01/22 00:07:30;;;;;;;9.43;7.70;;;3.50;99.90;;;;;;4991619;28;20201;-52
2023/01/22 00:09:56;;;;;;;11.13;8.27;;;3.50;99.90;;;;;;5053051;23;20557;-51
2023/01/22 00:12:22;;;;;;;9.63;8.20;;;3.50;99.90;;;;;;4991186;28;20216;-52
2023/01/22 00:14:48;;;;;;;9.30;7.13;;;3.50;99.90;;;;;;4988521;28;20177;-52
2023/01/22 00:17:14;;;;;;;9.77;7.47;;;3.60;99.90;;;;;;4990770;28;20701;-53
2023/01/22 00:19:39;;;;;;;7.97;6.73;;;3.60;99.90;;;;;;4995839;28;20439;-52
2023/01/22 00:22:05;;;;;;;9.67;7.67;;;3.50;99.90;;;;;;5003409;28;20523;-51
2023/01/22 00:24:31;;;;;;;8.73;7.50;;;3.50;99.90;;;;;;5002520;28;20164;-51
2023/01/22 00:26:56;;;;;;;9.13;7.33;;;3.40;99.90;;;;;;5010861;28;20463;-51
2023/01/22 00:29:22;;;;;;;11.23;7.13;;;3.50;99.90;;;;;;5009780;28;20196;-51
2023/01/22 00:31:47;;;;;;;9.33;7.20;;;3.50;99.90;;;;;;5007259;28;20187;-51
2023/01/22 00:34:13;;;;;;;8.37;7.00;;;3.50;99.90;;;;;;5010557;28;20173;-51
2023/01/22 00:36:40;;;;;;;8.77;7.00;;;3.50;99.90;;;;;;5010922;28;20199;-51
2023/01/22 00:39:05;;;;;;;9.07;7.20;;;3.40;99.90;;;;;;5010711;28;20201;-51
2023/01/22 00:41:31;;;;;;;8.93;7.27;;;3.40;99.90;;;;;;5010980;28;20892;-52
2023/01/22 00:43:56;;;;;;;9.20;7.77;;;3.40;99.90;;;;;;5010274;28;20184;-51
2023/01/22 00:46:22;;;;;;;8.03;6.50;;;3.40;99.90;;;;;;5010378;28;20299;-52
2023/01/22 00:48:49;;;;;;;8.93;7.07;;;3.40;99.90;;;;;;5007606;28;20177;-52
2023/01/22 00:51:14;;;;;;;7.70;6.60;;;3.40;99.90;;;;;;5010687;28;20664;-52
2023/01/22 00:53:42;;;;;;;9.00;7.60;;;3.40;99.90;;;;;;5010640;28;20164;-52
2023/01/22 00:56:08;;;;;;;9.97;7.90;;;3.40;99.90;;;;;;5014177;28;20203;-51
2023/01/22 00:58:34;;;;;;;8.83;7.40;;;2.20;99.90;;;;;;5014027;28;20510;-51
2023/01/22 01:01:02;;;;;;;8.87;7.17;;;3.40;99.90;;;;;;5013971;28;20527;-51
2023/01/22 01:03:31;;;;;;;10.30;8.10;;;3.40;99.90;;;;;;5013960;28;20244;-51
2023/01/22 01:06:01;;;;;;;7.97;6.50;;;3.40;99.90;;;;;;5013984;28;20634;-54
2023/01/22 01:08:28;;;;;;;11.13;8.47;;;3.40;99.90;;;;;;5014012;28;20419;-50
2023/01/22 01:10:59;;;;;;;8.73;7.83;;;3.30;99.90;;;;;;5013659;28;20439;-51
2023/01/22 01:13:25;;;;;;;10.07;7.90;;;3.30;99.90;;;;;;5013857;28;20491;-51
2023/01/22 01:16:01;;;;;;;10.13;8.30;;;3.30;99.90;;;;;;5013655;28;20416;-51
2023/01/22 01:18:28;;;;;;;9.70;8.23;;;3.30;99.90;;;;;;5013649;28;20454;-51
2023/01/22 01:20:55;;;;;;;9.30;8.23;;;3.30;99.90;;;;;;5013614;28;20529;-50
2023/01/22 01:23:21;;;;;;;8.77;7.37;;;3.30;99.90;;;;;;5011098;28;20419;-51
2023/01/22 01:25:46;;;;;;;9.53;8.33;;;3.20;99.90;;;;;;5013417;28;20452;-53
2023/01/22 01:28:12;;;;;;;9.77;8.03;;;3.30;99.90;;;;;;5012222;28;20751;-51
2023/01/22 01:30:38;;;;;;;9.37;7.67;;;3.30;99.90;;;;;;5013343;28;20270;-51
2023/01/22 01:33:03;;;;;;;9.50;8.07;;;3.30;99.90;;;;;;5013524;28;20209;-51
2023/01/22 01:35:29;;;;;;;9.87;8.03;;;3.30;99.90;;;;;;5013152;28;20169;-54
2023/01/22 01:37:54;;;;;;;9.87;8.03;;;3.20;99.90;;;;;;5013499;28;20276;-50
2023/01/22 01:40:20;;;;;;;10.37;8.50;;;3.20;99.90;;;;;;5013355;28;20270;-51
2023/01/22 01:42:45;;;;;;;8.37;7.47;;;3.30;99.90;;;;;;5013161;28;20169;-52
2023/01/22 01:45:31;;;;;;;10.23;8.43;;;3.30;99.90;;;;;;5013209;28;20169;-53
2023/01/22 01:48:16;;;;;;;9.30;8.07;;;3.30;99.90;;;;;;5013078;28;20303;-51
2023/01/22 01:50:46;;;;;;;9.90;7.90;;;3.20;99.90;;;;;;5013340;28;20422;-51
2023/01/22 01:53:12;;;;;;;9.50;7.80;;;3.10;99.90;;;;;;5013071;28;20796;-54
2023/01/22 01:55:39;;;;;;;8.40;7.13;;;3.10;99.90;;;;;;5013046;28;20410;-52
2023/01/22 01:58:10;;;;;;;9.30;7.70;;;3.10;99.90;;;;;;5011987;28;20446;-52
2023/01/22 02:00:38;;;;;;;10.37;8.50;;;3.10;99.90;;;;;;5012999;28;20936;-51
2023/01/22 02:03:03;;;;;;;11.67;9.50;;;3.10;99.90;;;;;;5012905;28;20747;-51
2023/01/22 02:05:35;;;;;;;11.33;8.63;;;3.20;99.90;;;;;;5011687;28;20224;-50
2023/01/22 02:08:00;;;;;;;10.80;9.07;;;3.20;99.90;;;;;;5012868;28;20199;-52
2023/01/22 02:10:26;;;;;;;11.00;9.40;;;3.10;99.90;;;;;;5012853;28;20443;-51
2023/01/22 02:12:55;;;;;;;11.90;9.17;;;3.20;99.90;;;;;;5011201;28;20169;-51
2023/01/22 02:15:21;;;;;;;14.33;10.90;;;3.20;99.90;;;;;;5012463;28;20181;-51
2023/01/22 02:17:47;;;;;;;13.87;11.43;;;3.10;99.90;;;;;;5012475;28;20414;-51
2023/01/22 02:20:12;;;;;;;13.63;10.50;;;3.10;99.90;;;;;;5012525;28;20291;-51
2023/01/22 02:22:39;;;;;;;15.07;12.20;;;3.10;99.90;;;;;;5012661;28;20845;-52
2023/01/22 02:25:06;;;;;;;12.00;10.17;;;3.10;99.90;;;;;;5012097;28;20573;-51
2023/01/22 02:27:31;;;;;;;15.67;11.97;;;3.10;99.90;;;;;;5012658;28;20454;-51
2023/01/22 02:29:57;;;;;;;14.73;11.77;;;3.10;99.90;;;;;;5006135;28;20444;-50
2023/01/22 02:32:22;;;;;;;12.40;10.33;;;3.10;99.90;;;;;;5010424;28;20184;-51
2023/01/22 02:34:48;;;;;;;12.70;10.23;;;3.10;99.90;;;;;;5012154;28;20179;-51
2023/01/22 02:37:14;;;;;;;12.03;10.67;;;3.10;99.90;;;;;;5012469;28;20304;-51
2023/01/22 02:39:39;;;;;;;13.97;11.37;;;3.10;99.90;;;;;;5012233;28;20188;-52
2023/01/22 02:42:05;;;;;;;12.60;10.07;;;3.00;99.90;;;;;;5012454;28;20177;-51
2023/01/22 02:44:31;;;;;;;12.73;10.33;;;3.00;99.90;;;;;;5012085;28;20199;-52
2023/01/22 02:46:56;;;;;;;11.20;9.27;;;3.00;99.90;;;;;;5012114;28;20444;-51
2023/01/22 02:49:22;;;;;;;11.33;9.90;;;3.00;99.90;;;;;;5012177;28;20224;-53
2023/01/22 02:51:48;;;;;;;11.93;10.23;;;3.00;99.90;;;;;;5012034;28;20175;-52
2023/01/22 02:54:13;;;;;;;12.03;9.97;;;3.00;99.90;;;;;;5012002;28;20223;-52
2023/01/22 02:56:39;;;;;;;11.67;9.87;;;3.10;99.90;;;;;;5010693;28;20550;-52
2023/01/22 02:59:04;;;;;;;11.80;9.60;;;3.00;99.90;;;;;;5011958;28;20599;-51
2023/01/22 03:01:30;;;;;;;11.03;9.43;;;3.10;99.90;;;;;;5011955;28;20180;-52
2023/01/22 03:04:00;;;;;;;13.27;10.37;;;3.40;99.90;;;;;;5011729;28;20229;-51
2023/01/22 03:06:28;;;;;;;14.60;11.70;;;3.10;99.90;;;;;;5011681;28;20200;-51
2023/01/22 03:08:56;;;;;;;12.30;9.97;;;3.10;99.90;;;;;;5011887;28;20408;-51
2023/01/22 03:11:23;;;;;;;13.23;10.63;;;3.20;99.90;;;;;;5011869;28;20904;-51
2023/01/22 03:22:04;;;;;;;14.33;11.97;;;3.10;99.90;;;;;;5011770;28;20409;-52
2023/01/22 03:24:30;;;;;;;12.57;10.57;;;3.10;99.90;;;;;;5011416;28;20494;-51
2023/01/22 03:26:55;;;;;;;11.83;10.27;;;3.10;99.90;;;;;;5011214;28;20200;-51
2023/01/22 03:29:21;;;;;;;12.97;11.03;;;3.10;99.90;;;;;;5011325;28;20558;-52
2023/01/22 03:31:47;;;;;;;13.17;11.30;;;3.10;99.90;;;;;;5011605;28;20482;-51
2023/01/22 03:34:17;;;;;;;12.07;10.57;;;3.10;99.90;;;;;;5011210;28;20221;-51
2023/01/22 03:36:43;;;;;;;14.07;10.83;;;3.10;99.90;;;;;;5011418;28;20674;-53
2023/01/22 03:39:10;;;;;;;13.10;10.87;;;3.10;99.90;;;;;;5011117;28;20800;-50
2023/01/22 03:41:35;;;;;;;11.97;9.67;;;3.10;99.90;;;;;;5011473;28;20411;-51
2023/01/22 03:44:02;;;;;;;12.57;10.33;;;3.10;99.90;;;;;;5010990;28;20415;-52
2023/01/22 03:46:28;;;;;;;14.37;11.10;;;3.10;99.90;;;;;;5010051;28;20310;-52
2023/01/22 03:48:54;;;;;;;14.70;11.63;;;3.20;99.90;;;;;;5011268;28;20420;-52
2023/01/22 03:51:20;;;;;;;12.63;10.40;;;3.20;99.90;;;;;;5011221;28;20418;-51
2023/01/22 03:53:46;;;;;;;12.53;10.67;;;4.30;99.90;;;;;;5011128;28;20765;-52
2023/01/22 03:56:16;;;;;;;13.10;10.90;;;3.20;99.90;;;;;;5011181;28;20223;-52
2023/01/22 03:58:41;;;;;;;12.80;10.63;;;3.10;99.90;;;;;;5011377;28;20172;-52
2023/01/22 04:01:09;;;;;;;12.50;10.60;;;3.10;99.90;;;;;;5011073;28;20498;-52
2023/01/22 04:03:35;;;;;;;12.90;10.13;;;3.10;99.90;;;;;;5011013;28;20242;-54
2023/01/22 04:06:02;;;;;;;14.53;11.53;;;3.10;99.90;;;;;;5010918;28;20936;-51
2023/01/22 04:08:29;;;;;;;12.20;10.03;;;3.00;99.90;;;;;;5011306;28;20176;-51
2023/01/22 04:10:56;;;;;;;13.13;10.77;;;3.00;99.90;;;;;;5010907;28;20447;-51
2023/01/22 04:13:22;;;;;;;12.13;9.83;;;2.90;99.90;;;;;;5011117;28;20407;-51
2023/01/22 04:15:47;;;;;;;13.00;10.63;;;2.90;99.90;;;;;;5010859;28;20777;-51
2023/01/22 04:18:13;;;;;;;13.00;10.93;;;3.00;99.90;;;;;;5011140;28;20408;-52
2023/01/22 04:20:39;;;;;;;12.77;10.40;;;3.00;99.90;;;;;;5010970;28;20268;-52
2023/01/22 04:23:05;;;;;;;12.20;10.60;;;3.00;99.90;;;;;;5011070;28;20173;-52
2023/01/22 04:25:31;;;;;;;12.50;10.43;;;3.10;99.90;;;;;;5010922;28;20173;-51
2023/01/22 04:27:56;;;;;;;12.67;11.03;;;3.10;99.90;;;;;;5010800;28;20454;-51
2023/01/22 04:30:22;;;;;;;13.03;11.07;;;3.10;99.90;;;;;;5013822;28;20199;-51
2023/01/22 04:32:48;;;;;;;13.57;10.83;;;3.10;99.90;;;;;;5014712;28;20192;-52
2023/01/22 04:35:14;;;;;;;13.47;11.17;;;3.20;99.90;;;;;;5014572;28;20173;-53
2023/01/22 04:37:39;;;;;;;13.73;10.57;;;3.20;99.90;;;;;;5014516;28;20180;-51
2023/01/22 04:40:05;;;;;;;13.43;11.33;;;3.10;99.90;;;;;;5014706;28;20538;-52
2023/01/22 04:42:31;;;;;;;13.27;10.77;;;3.10;99.90;;;;;;5014572;28;20223;-52
2023/01/22 04:44:57;;;;;;;14.83;11.30;;;3.10;99.90;;;;;;5014354;28;20443;-52
2023/01/22 04:47:23;;;;;;;13.30;11.23;;;3.10;99.90;;;;;;5010173;28;20498;-51
2023/01/22 04:49:49;;;;;;;15.43;12.13;;;3.10;99.90;;;;;;5014399;28;20731;-52
2023/01/22 04:52:14;;;;;;;13.67;10.67;;;3.00;99.90;;;;;;5014417;28;20240;-52
2023/01/22 04:54:40;;;;;;;13.03;11.23;;;3.10;99.90;;;;;;5014152;28;20601;-51
2023/01/22 04:57:05;;;;;;;12.60;10.57;;;3.10;99.90;;;;;;5014258;28;20182;-52
2023/01/22 04:59:31;;;;;;;14.77;11.17;;;3.10;99.90;;;;;;5014072;28;20200;-54
2023/01/22 05:01:56;;;;;;;13.37;11.40;;;3.20;99.90;;;;;;5014435;28;20184;-51
2023/01/22 05:04:22;;;;;;;13.27;11.67;;;3.10;99.90;;;;;;5013952;28;20597;-52
2023/01/22 05:06:48;;;;;;;14.40;11.53;;;3.00;99.90;;;;;;5014150;28;20196;-51
2023/01/22 05:09:14;;;;;;;14.57;11.63;;;3.00;99.90;;;;;;5014023;28;20287;-52
2023/01/22 05:11:39;;;;;;;13.20;11.40;;;3.00;99.90;;;;;;5012663;28;20171;-50
2023/01/22 05:14:05;;;;;;;14.47;12.53;;;3.00;99.90;;;;;;4994160;28;20173;-52
2023/01/22 05:16:31;;;;;;;13.97;11.40;;;2.90;99.90;;;;;;4994511;28;20173;-52
2023/01/22 05:18:56;;;;;;;15.37;11.70;;;2.90;99.90;;;;;;4994305;28;20534;-53
2023/01/22 05:21:22;;;;;;;13.87;10.83;;;2.80;99.90;;;;;;4994281;28;20237;-52
2023/01/22 05:23:47;;;;;;;13.03;10.77;;;2.70;99.90;;;;;;4994322;28;20590;-51
2023/01/22 05:26:13;;;;;;;15.10;11.90;;;2.60;99.90;;;;;;4994040;28;20212;-51
2023/01/22 05:28:38;;;;;;;13.43;11.07;;;2.70;99.90;;;;;;4993171;28;20220;-51
2023/01/22 05:31:04;;;;;;;13.67;11.27;;;2.70;99.90;;;;;;4993927;28;20189;-51
2023/01/22 05:33:30;;;;;;;14.30;11.70;;;2.80;99.90;;;;;;4993943;28;20172;-51
2023/01/22 05:35:58;;;;;;;14.00;11.13;;;2.70;99.90;;;;;;4993717;28;20220;-50
2023/01/22 05:38:24;;;;;;;13.90;11.50;;;2.70;99.90;;;;;;4993849;28;20418;-51
2023/01/22 05:40:49;;;;;;;13.03;11.23;;;2.70;99.90;;;;;;4993555;28;20444;-52
2023/01/22 05:43:15;;;;;;;14.60;12.10;;;2.70;99.90;;;;;;4993936;28;20408;-50
2023/01/22 05:45:40;;;;;;;15.77;12.97;;;2.60;99.90;;;;;;4993361;28;20173;-51
2023/01/22 05:48:06;;;;;;;14.47;12.23;;;2.60;99.90;;;;;;4992531;28;20208;-50
2023/01/22 05:50:31;;;;;;;17.20;13.80;;;2.60;99.90;;;;;;4993456;28;20201;-50
2023/01/22 05:52:57;;;;;;;16.53;13.20;;;2.60;99.90;;;;;;4993607;28;20169;-50
2023/01/22 05:55:22;;;;;;;14.50;11.67;;;2.60;99.90;;;;;;4993330;28;20204;-51
2023/01/22 05:57:48;;;;;;;15.57;12.90;;;2.80;99.90;;;;;;4993481;28;20193;-50
2023/01/22 06:00:15;;;;;;;16.07;11.40;;;2.80;99.90;;;;;;4993636;28;20197;-51
2023/01/22 06:02:40;;;;;;;13.53;11.20;;;2.80;99.90;;;;;;4993260;28;20176;-50
2023/01/22 06:05:07;;;;;;;17.30;14.10;;;2.80;99.90;;;;;;4993154;28;20435;-50
2023/01/22 06:07:32;;;;;;;14.47;11.90;;;2.80;99.90;;;;;;4993119;28;20204;-50
2023/01/22 06:09:58;;;;;;;17.17;13.60;;;2.70;99.90;;;;;;4994290;28;21010;-51
2023/01/22 06:12:23;;;;;;;18.47;13.60;;;2.70;99.90;;;;;;4993030;28;20263;-52
2023/01/22 06:14:49;;;;;;;14.23;11.40;;;2.60;99.90;;;;;;4992982;28;20172;-52
2023/01/22 06:17:16;;;;;;;13.90;11.90;;;2.70;99.90;;;;;;4993189;28;20200;-50
2023/01/22 06:19:41;;;;;;;16.97;13.77;;;2.80;99.90;;;;;;4992956;28;20189;-50
2023/01/22 06:22:07;;;;;;;16.80;13.57;;;2.80;99.90;;;;;;4993022;28;20960;-52
2023/01/22 06:24:32;;;;;;;15.83;12.43;;;2.80;99.90;;;;;;4991223;28;20183;-53
2023/01/22 06:26:58;;;;;;;15.13;12.17;;;2.90;99.90;;;;;;4992937;28;20686;-52
2023/01/22 06:29:23;;;;;;;14.63;11.93;;;2.80;99.90;;;;;;4992749;28;20689;-51
2023/01/22 06:31:49;;;;;;;14.20;11.57;;;2.80;99.90;;;;;;4992887;28;20531;-51
2023/01/22 06:34:15;;;;;;;13.33;11.10;;;2.80;99.90;;;;;;4991119;28;20315;-50
2023/01/22 06:36:41;;;;;;;13.23;11.07;;;2.80;99.90;;;;;;4992789;28;20173;-50
2023/01/22 06:39:06;;;;;;;12.63;10.67;;;2.80;99.90;;;;;;4991320;28;20173;-50
2023/01/22 06:41:32;;;;;;;15.73;12.97;;;2.80;99.90;;;;;;4992673;28;20222;-50
2023/01/22 06:43:58;;;;;;;15.00;11.70;;;2.90;99.90;;;;;;4992163;28;20181;-53
2023/01/22 06:46:23;;;;;;;15.47;13.03;;;2.90;99.90;;;;;;4992351;28;20256;-51
2023/01/22 06:48:49;;;;;;;14.20;11.53;;;2.90;99.90;;;;;;4992557;28;20184;-53
2023/01/22 06:51:14;;;;;;;14.53;12.17;;;2.90;99.90;;;;;;4992288;28;20185;-51
2023/01/22 06:53:40;;;;;;;13.43;11.27;;;3.00;99.90;;;;;;4991993;28;20253;-52
2023/01/22 06:56:06;;;;;;;13.77;11.40;;;3.00;99.90;;;;;;4992437;28;20177;-50
2023/01/22 06:58:31;;;;;;;14.73;11.57;;;2.90;99.90;;;;;;4992474;28;20366;-50
2023/01/22 07:01:02;;;;;;;14.83;12.30;;;2.80;99.90;;;;;;4992173;28;20276;-52
2023/01/22 07:03:27;;;;;;;13.73;11.00;;;2.80;99.90;;;;;;4992169;28;20184;-52
2023/01/22 07:06:03;;;;;;;13.73;11.33;;;2.80;99.90;;;;;;4992015;28;20424;-51
2023/01/22 07:08:30;;;;;;;30.17;20.03;;;2.70;99.90;;;;;;4991861;28;20255;-51
2023/01/22 07:10:56;;;;;;;15.33;12.00;;;2.70;99.90;;;;;;4990969;28;20455;-50
2023/01/22 07:13:22;;;;;;;13.87;11.13;;;2.60;99.90;;;;;;4991557;28;20479;-50
2023/01/22 07:15:47;;;;;;;14.67;11.33;;;2.60;99.90;;;;;;4991572;28;20188;-51
2023/01/22 07:18:14;;;;;;;15.73;12.73;;;2.60;99.90;;;;;;4991866;28;20545;-51
2023/01/22 07:20:41;;;;;;;16.03;12.77;;;2.50;99.90;;;;;;4991930;28;20185;-51
2023/01/22 07:23:07;;;;;;;15.83;12.10;;;2.50;99.90;;;;;;4992115;28;20412;-51
2023/01/22 07:25:33;;;;;;;16.63;13.23;;;2.50;99.90;;;;;;4991740;28;20547;-50
2023/01/22 07:27:59;;;;;;;17.57;14.10;;;2.50;99.90;;;;;;4991698;28;20901;-51
2023/01/22 07:30:25;;;;;;;17.57;13.00;;;2.50;99.90;;;;;;4991882;28;20287;-52
2023/01/22 07:32:51;;;;;;;16.40;13.17;;;2.50;99.90;;;;;;4991596;28;20409;-51
2023/01/22 07:35:17;;;;;;;14.77;12.07;;;2.50;99.90;;;;;;4991854;28;20635;-52
2023/01/22 07:37:42;;;;;;;15.43;12.10;;;2.60;99.90;;;;;;4991680;28;20192;-52
2023/01/22 07:40:09;;;;;;;15.17;12.30;;;2.60;99.90;;;;;;4991399;28;21125;-52
2023/01/22 07:42:36;;;;;;;17.47;13.23;;;2.60;99.90;;;;;;4991699;28;20650;-50
2023/01/22 07:45:01;;;;;;;19.33;14.67;;;2.70;99.90;;;;;;4991384;28;20515;-51
2023/01/22 07:47:27;;;;;;;15.70;12.20;;;2.70;99.90;;;;;;4991597;28;20448;-51
2023/01/22 07:49:52;;;;;;;16.23;12.07;;;2.80;99.90;;;;;;4990229;28;20197;-50
2023/01/22 07:52:18;;;;;;;16.17;12.47;;;2.80;99.90;;;;;;4990521;28;20223;-51
2023/01/22 07:54:44;;;;;;;15.03;11.87;;;2.80;99.90;;;;;;4991288;28;20177;-51
2023/01/22 07:57:14;;;;;;;16.13;12.47;;;2.80;99.90;;;;;;4991575;28;20751;-52
2023/01/22 07:59:39;;;;;;;15.03;11.37;;;2.80;99.90;;;;;;4991480;28;20193;-50
2023/01/22 08:02:05;;;;;;;16.03;11.83;;;2.90;99.90;;;;;;4991634;28;20904;-51
2023/01/22 08:04:30;;;;;;;12.73;10.40;;;3.00;99.90;;;;;;4992749;28;20542;-51
2023/01/22 08:06:56;;;;;;;14.13;10.57;;;3.10;99.90;;;;;;4995445;28;20212;-51
2023/01/22 08:09:24;;;;;;;12.07;9.73;;;3.10;99.90;;;;;;4995181;28;20284;-52
2023/01/22 08:11:50;;;;;;;14.27;11.00;;;3.00;99.90;;;;;;4995505;28;20169;-52
2023/01/22 08:14:16;;;;;;;12.57;10.63;;;2.80;99.90;;;;;;4995091;28;20443;-50
2023/01/22 08:16:42;;;;;;;13.13;10.70;;;2.90;99.90;;;;;;4995349;28;20428;-50
2023/01/22 08:19:08;;;;;;;14.23;11.10;;;3.00;99.90;;;;;;4995300;28;20197;-51
2023/01/22 08:21:34;;;;;;;13.57;10.60;;;3.10;99.90;;;;;;4995194;28;20178;-50
2023/01/22 08:23:59;;;;;;;12.63;10.53;;;3.10;99.90;;;;;;4994990;28;20188;-51
2023/01/22 08:26:25;;;;;;;11.23;9.63;;;3.10;99.90;;;;;;4993402;28;20211;-51
2023/01/22 08:28:50;;;;;;;11.27;9.17;;;3.10;99.90;;;;;;4995041;28;20172;-51
2023/01/22 08:31:16;;;;;;;13.80;10.47;;;3.20;99.90;;;;;;4994969;28;20257;-51
2023/01/22 08:33:41;;;;;;;11.93;9.93;;;3.30;99.90;;;;;;4994830;28;20204;-51
2023/01/22 08:36:07;;;;;;;11.03;8.80;;;3.40;99.90;;;;;;4994812;28;20212;-51
2023/01/22 08:38:33;;;;;;;10.80;9.00;;;3.40;99.90;;;;;;4995044;28;20180;-51
2023/01/22 08:40:58;;;;;;;11.73;9.67;;;3.50;99.90;;;;;;4994746;28;20193;-51
2023/01/22 08:43:24;;;;;;;13.80;11.30;;;3.40;99.90;;;;;;4995166;28;20181;-51
2023/01/22 08:45:49;;;;;;;12.10;9.93;;;3.50;99.90;;;;;;4994521;28;20192;-53
2023/01/22 08:48:16;;;;;;;12.17;9.97;;;3.60;99.90;;;;;;4994600;28;20177;-51
2023/01/22 08:50:41;;;;;;;13.70;11.17;;;3.70;99.90;;;;;;4993520;28;20201;-51
2023/01/22 08:53:07;;;;;;;13.80;10.70;;;3.70;99.90;;;;;;4994752;28;20665;-50
2023/01/22 08:55:32;;;;;;;12.60;10.00;;;3.70;99.90;;;;;;4994578;28;20688;-51
2023/01/22 08:57:58;;;;;;;12.13;10.13;;;3.70;99.90;;;;;;4994481;28;20268;-50
2023/01/22 09:00:24;;;;;;;11.50;9.87;;;3.70;99.90;;;;;;4994548;28;20259;-51
2023/01/22 09:02:50;;;;;;;12.23;9.53;;;3.70;99.90;;;;;;4994373;28;20181;-52
2023/01/22 09:05:15;;;;;;;12.07;10.60;;;3.80;99.90;;;;;;4994339;28;20176;-51
2023/01/22 09:07:41;;;;;;;9.33;8.33;;;3.90;99.90;;;;;;4994317;28;20213;-49
2023/01/22 09:10:11;;;;;;;10.33;9.07;;;3.90;99.90;;;;;;4992914;28;20626;-51
2023/01/22 09:12:36;;;;;;;10.40;8.50;;;3.90;99.90;;;;;;4994284;28;20708;-51
2023/01/22 09:15:03;;;;;;;9.77;8.17;;;3.80;99.90;;;;;;4993468;28;20177;-53
2023/01/22 09:17:28;;;;;;;10.77;8.87;;;3.80;99.90;;;;;;4994314;28;20173;-53
2023/01/22 09:19:54;;;;;;;11.80;9.07;;;3.80;99.90;;;;;;4997220;28;20271;-50
2023/01/22 09:22:19;;;;;;;10.67;8.80;;;3.90;99.90;;;;;;5013698;28;20191;-51
2023/01/22 09:24:45;;;;;;;11.43;9.90;;;4.00;99.90;;;;;;5013368;28;20177;-51
2023/01/22 09:27:12;;;;;;;12.67;9.93;;;4.10;99.90;;;;;;5013639;28;20197;-52
2023/01/22 09:29:38;;;;;;;13.50;11.27;;;4.10;99.90;;;;;;5013428;28;20184;-51
2023/01/22 09:32:04;;;;;;;11.43;9.83;;;4.10;99.90;;;;;;5013757;28;20175;-51
2023/01/22 09:34:29;;;;;;;11.67;9.87;;;4.10;99.90;;;;;;5013283;28;20169;-52
2023/01/22 09:36:55;;;;;;;10.43;9.30;;;4.20;99.90;;;;;;5012188;28;20176;-50
2023/01/22 09:39:20;;;;;;;10.83;9.03;;;4.30;99.90;;;;;;5013402;28;20192;-52
2023/01/22 09:41:53;;;;;;;9.67;8.67;;;4.20;99.90;;;;;;5013426;28;20173;-50
2023/01/22 09:44:26;;;;;;;10.63;8.93;;;4.00;99.90;;;;;;5013098;28;20251;-50
2023/01/22 09:46:58;;;;;;;11.30;9.13;;;3.90;99.90;;;;;;5013448;28;20239;-50
2023/01/22 09:49:30;;;;;;;10.90;9.10;;;3.80;99.90;;;;;;5013453;28;20250;-51
2023/01/22 09:51:58;;;;;;;11.17;8.77;;;4.00;99.90;;;;;;5013293;28;20160;-50
2023/01/22 09:54:26;;;;;;;12.93;9.90;;;4.10;99.90;;;;;;5013026;28;20244;-51
2023/01/22 09:56:54;;;;;;;12.20;9.80;;;4.20;99.90;;;;;;5013072;28;20215;-50
2023/01/22 09:59:25;;;;;;;13.87;10.40;;;4.20;99.90;;;;;;5013147;28;20192;-50
2023/01/22 10:01:54;;;;;;;12.00;10.20;;;4.20;99.90;;;;;;5013124;28;20203;-51
2023/01/22 10:04:39;;;;;;;11.60;9.93;;;4.20;99.90;;;;;;5013003;28;20184;-51
2023/01/22 10:07:09;;;;;;;11.30;9.27;;;4.20;99.90;;;;;;5012824;28;20208;-51
2023/01/22 10:09:38;;;;;;;13.50;11.13;;;4.20;99.90;;;;;;5011651;28;20822;-51
2023/01/22 10:12:12;;;;;;;12.53;9.97;;;4.30;99.90;;;;;;5012803;28;20184;-52
2023/01/22 10:14:41;;;;;;;13.87;10.97;;;4.30;99.90;;;;;;5012810;28;20163;-52
2023/01/22 10:17:18;;;;;;;12.93;10.87;;;4.30;99.90;;;;;;5012846;28;20179;-50
2023/01/22 10:19:48;;;;;;;14.20;11.77;;;4.10;99.90;;;;;;5012843;28;20288;-50
2023/01/22 10:22:24;;;;;;;13.43;11.40;;;4.00;99.90;;;;;;5012744;28;20179;-50
2023/01/22 10:24:50;;;;;;;13.27;10.70;;;4.00;99.90;;;;;;5012511;28;20168;-53
2023/01/22 10:27:23;;;;;;;14.83;11.90;;;3.90;99.90;;;;;;5011973;28;20796;-50
2023/01/22 10:30:06;;;;;;;15.10;11.33;;;3.90;99.90;;;;;;5012734;28;20219;-50
2023/01/22 10:32:32;;;;;;;13.67;11.37;;;4.00;99.90;;;;;;5012721;28;20188;-50
2023/01/22 10:35:03;;;;;;;13.47;11.60;;;4.10;99.90;;;;;;5012528;28;20173;-51
2023/01/22 10:37:28;;;;;;;12.63;10.50;;;4.20;99.90;;;;;;5012765;28;20585;-50
2023/01/22 10:39:58;;;;;;;14.03;11.67;;;4.20;99.90;;;;;;5012361;28;20228;-52
2023/01/22 10:42:28;;;;;;;12.80;10.47;;;4.30;99.90;;;;;;5012379;28;20168;-51
2023/01/22 10:45:06;;;;;;;13.10;10.77;;;4.30;99.90;;;;;;5012126;28;20247;-52
2023/01/22 10:47:32;;;;;;;13.17;10.73;;;4.30;99.90;;;;;;5012398;28;20298;-54
2023/01/22 10:50:24;;;;;;;14.50;11.37;;;4.40;99.90;;;;;;5012205;28;20275;-50
2023/01/22 10:52:53;;;;;;;13.13;11.13;;;4.60;99.90;;;;;;5010336;28;20601;-51
2023/01/22 10:55:23;;;;;;;12.87;10.67;;;4.50;99.90;;;;;;5011932;28;20192;-50
2023/01/22 10:57:55;;;;;;;12.27;9.93;;;4.40;99.90;;;;;;5012255;28;20173;-50
2023/01/22 11:00:42;;;;;;;12.63;9.97;;;4.50;99.90;;;;;;5012156;28;20197;-50
2023/01/22 11:03:21;;;;;;;12.90;10.97;;;4.60;99.90;;;;;;5012118;28;20619;-51
2023/01/22 11:05:49;;;;;;;15.50;11.90;;;4.70;99.90;;;;;;5011865;28;20172;-49
2023/01/22 11:08:18;;;;;;;14.20;11.17;;;4.80;99.90;;;;;;5011989;28;20545;-50
2023/01/22 11:10:51;;;;;;;31.67;24.60;;;4.80;99.90;;;;;;5011717;28;20590;-50
2023/01/22 11:13:35;;;;;;;16.57;12.30;;;4.90;99.90;;;;;;5012118;28;20173;-50
2023/01/22 11:16:25;;;;;;;14.97;12.60;;;5.00;99.90;;;;;;5011836;28;20196;-50
2023/01/22 11:19:02;;;;;;;14.60;11.43;;;5.10;99.90;;;;;;5011365;28;20219;-50
2023/01/22 11:21:34;;;;;;;15.37;12.13;;;5.20;99.90;;;;;;5011945;28;20230;-50
2023/01/22 11:24:12;;;;;;;12.33;10.73;;;5.30;99.90;;;;;;5011486;28;20176;-51
2023/01/22 11:26:47;;;;;;;13.33;10.63;;;5.30;99.90;;;;;;5011637;28;20200;-50
2023/01/22 11:29:37;;;;;;;13.80;11.00;;;5.30;99.90;;;;;;5011692;28;20204;-50
2023/01/22 11:32:34;;;;;;;12.47;11.00;;;5.40;99.90;;;;;;4980262;28;20264;-51
2023/01/22 11:35:41;;;;;;;14.47;11.37;;;5.50;99.90;;;;;;4981142;28;20228;-49
2023/01/22 11:38:36;;;;;;;14.70;12.07;;;5.50;99.90;;;;;;4979847;28;20189;-51
2023/01/22 11:41:39;;;;;;;12.63;10.30;;;5.50;99.90;;;;;;4975275;28;20217;-52
2023/01/22 11:44:22;;;;;;;13.03;10.97;;;5.40;99.90;;;;;;4981789;28;20232;-51
2023/01/22 11:47:11;;;;;;;13.27;11.27;;;5.40;99.90;;;;;;4982205;28;20198;-50
2023/01/22 11:50:05;;;;;;;13.70;10.93;;;5.30;99.90;;;;;;4982823;28;20279;-51
2023/01/22 11:52:46;;;;;;;14.37;11.63;;;5.00;99.90;;;;;;4982685;28;20232;-52
2023/01/22 11:55:54;;;;;;;15.50;12.47;;;4.80;99.90;;;;;;4982339;28;20188;-51
2023/01/22 11:58:38;;;;;;;14.80;11.80;;;4.80;99.90;;;;;;4981177;28;20551;-50
2023/01/22 12:01:30;;;;;;;14.20;11.80;;;4.70;99.90;;;;;;4981552;28;20193;-49
2023/01/22 12:04:03;;;;;;;13.60;11.10;;;4.70;99.90;;;;;;4982103;28;20248;-50
2023/01/22 12:06:42;;;;;;;14.27;11.90;;;4.70;99.90;;;;;;4982306;28;20192;-50
2023/01/22 12:09:22;;;;;;;15.00;12.23;;;4.70;99.90;;;;;;4981840;28;20204;-51
2023/01/22 12:12:12;;;;;;;13.77;11.47;;;4.50;99.90;;;;;;4982215;28;20177;-51
2023/01/22 12:14:56;;;;;;;15.53;12.03;;;4.50;99.90;;;;;;4980514;28;20174;-50
2023/01/22 12:17:59;;;;;;;14.00;11.33;;;4.40;99.90;;;;;;4981488;28;20224;-52
2023/01/22 12:20:57;;;;;;;13.00;10.53;;;4.10;99.90;;;;;;4981507;28;20277;-50
2023/01/22 12:23:54;;;;;;;15.40;11.77;;;4.00;99.90;;;;;;4971234;28;20269;-52
2023/01/22 12:26:25;;;;;;;15.17;11.83;;;4.10;99.90;;;;;;4981771;28;20194;-51
2023/01/22 12:29:15;;;;;;;15.27;12.33;;;4.20;99.90;;;;;;4980659;28;20189;-52
2023/01/22 12:31:51;;;;;;;13.80;11.23;;;4.20;99.90;;;;;;4997877;23;20251;-51
2023/01/22 12:34:46;;;;;;;14.40;11.37;;;4.10;99.90;;;;;;5007100;28;20184;-50
2023/01/22 12:37:16;;;;;;;15.23;12.03;;;4.10;99.90;;;;;;5003334;28;20191;-50
2023/01/22 12:39:53;;;;;;;15.70;12.33;;;4.10;99.90;;;;;;5010496;28;20278;-52
2023/01/22 12:42:31;;;;;;;13.50;11.10;;;4.10;99.90;;;;;;5010850;28;20212;-52
2023/01/22 12:45:05;;;;;;;13.50;11.17;;;4.20;99.90;;;;;;5011172;28;20173;-50
2023/01/22 12:47:37;;;;;;;13.27;11.07;;;4.30;99.90;;;;;;5010103;28;20559;-53
2023/01/22 12:50:14;;;;;;;13.87;11.87;;;4.40;99.90;;;;;;5003472;28;20173;-52
2023/01/22 12:52:40;;;;;;;12.87;10.93;;;4.40;99.90;;;;;;5022515;28;20206;-51
2023/01/22 12:55:36;;;;;;;13.43;11.30;;;4.30;99.90;;;;;;5033717;28;20164;-56
2023/01/22 12:58:03;;;;;;;13.53;11.50;;;4.30;99.90;;;;;;5033813;28;20226;-49